Time;durP1;ratioP1;P1;durP2;ratioP2;P2;SDS_P1;SDS_P2;PMS_P1;PMS_P2;Temp;Humidity;BMP_temperature;BMP_pressure;BME280_temperature;BME280_humidity;BME280_pressure;Samples;Min_cycle;Max_cycle;Signal;HPM_P1;HPM_P2
2021/03/16 00:03:43;;;;;;;;;;;;;;;;;;;;;
2021/03/16 00:10:51;;;;;;;6.22;4.05;;;5.20;99.90;;;;;;4843796;29;20580;-76
2021/03/16 00:12:55;;;;;;;13.23;5.18;;;5.30;99.90;;;;;;4830351;28;20039;-75
2021/03/16 00:15:21;;;;;;;6.93;4.60;;;5.20;99.90;;;;;;4955770;28;20079;-75
2021/03/16 00:17:48;;;;;;;9.43;5.05;;;5.10;99.90;;;;;;4957826;28;20078;-75
2021/03/16 00:20:14;;;;;;;6.50;4.63;;;5.10;99.90;;;;;;4957928;28;20015;-76
2021/03/16 00:22:40;;;;;;;6.50;4.47;;;5.00;99.90;;;;;;4957241;28;20032;-75
2021/03/16 00:25:07;;;;;;;6.50;4.53;;;5.00;99.90;;;;;;4950676;28;20022;-77
2021/03/16 00:27:33;;;;;;;5.75;4.50;;;5.10;99.90;;;;;;4961456;28;20045;-76
2021/03/16 00:29:59;;;;;;;5.60;4.30;;;5.10;99.90;;;;;;4956510;28;20027;-75
2021/03/16 00:32:25;;;;;;;9.32;4.65;;;5.00;99.90;;;;;;4966227;28;20038;-76
2021/03/16 00:34:51;;;;;;;5.72;4.20;;;5.10;99.90;;;;;;4962518;28;20094;-75
2021/03/16 00:37:17;;;;;;;11.02;4.65;;;5.00;99.90;;;;;;4961551;28;20034;-76
2021/03/16 00:39:43;;;;;;;5.30;4.32;;;5.00;99.90;;;;;;4953709;28;20468;-76
2021/03/16 00:42:11;;;;;;;6.07;4.03;;;4.90;99.90;;;;;;4958571;28;20026;-75
2021/03/16 00:44:37;;;;;;;5.95;3.45;;;4.90;99.90;;;;;;4956855;28;20031;-76
2021/03/16 00:47:03;;;;;;;4.75;3.72;;;4.90;99.90;;;;;;4960250;28;20573;-75
2021/03/16 00:49:29;;;;;;;5.03;3.83;;;4.90;99.90;;;;;;4948715;28;20795;-76
2021/03/16 00:52:18;;;;;;;6.57;4.22;;;5.00;99.90;;;;;;4958826;28;20602;-75
2021/03/16 00:54:44;;;;;;;5.30;3.58;;;5.20;99.90;;;;;;4947643;28;20047;-75
2021/03/16 00:57:10;;;;;;;6.88;3.70;;;5.20;99.90;;;;;;4971865;28;20019;-75
2021/03/16 00:59:42;;;;;;;8.80;5.15;;;5.20;99.90;;;;;;4960664;28;20066;-75
2021/03/16 01:02:08;;;;;;;5.88;3.88;;;5.20;99.90;;;;;;4956554;28;20031;-75
2021/03/16 01:04:34;;;;;;;4.80;3.83;;;5.10;99.90;;;;;;4962915;28;20031;-75
2021/03/16 01:07:00;;;;;;;7.50;3.72;;;5.10;99.90;;;;;;4972593;28;20031;-76
2021/03/16 01:09:29;;;;;;;5.60;3.60;;;5.10;99.90;;;;;;4951066;28;20034;-76
2021/03/16 01:11:55;;;;;;;5.50;3.15;;;4.90;99.90;;;;;;4964386;28;20031;-75
2021/03/16 01:14:21;;;;;;;6.88;3.42;;;4.90;99.90;;;;;;4945015;28;20100;-75
2021/03/16 01:16:47;;;;;;;4.30;3.30;;;4.80;99.90;;;;;;4962448;28;20529;-75
2021/03/16 01:19:13;;;;;;;4.18;3.78;;;4.80;99.90;;;;;;4947340;28;21046;-75
2021/03/16 01:21:38;;;;;;;4.95;3.67;;;4.80;99.90;;;;;;4955826;28;20038;-76
2021/03/16 01:24:05;;;;;;;6.90;3.67;;;4.70;99.90;;;;;;4938787;28;20086;-75
2021/03/16 01:26:31;;;;;;;7.03;4.38;;;4.70;99.90;;;;;;4942780;28;20033;-75
2021/03/16 01:28:57;;;;;;;7.10;3.88;;;4.70;99.90;;;;;;4964830;28;20022;-76
2021/03/16 01:31:23;;;;;;;4.55;3.30;;;4.80;99.90;;;;;;4961608;28;20639;-75
2021/03/16 01:33:48;;;;;;;6.00;3.55;;;4.80;99.90;;;;;;4959053;28;20038;-75
2021/03/16 01:36:14;;;;;;;5.57;3.78;;;4.90;99.90;;;;;;4962385;28;20509;-76
2021/03/16 01:38:40;;;;;;;5.20;3.80;;;5.00;99.90;;;;;;4959427;28;20030;-75
2021/03/16 01:41:06;;;;;;;5.68;3.63;;;4.90;99.90;;;;;;4966840;28;20023;-75
2021/03/16 01:43:33;;;;;;;3.78;3.13;;;4.90;99.90;;;;;;4946860;28;20020;-75
2021/03/16 01:45:59;;;;;;;5.07;2.40;;;4.90;99.90;;;;;;4965583;28;20482;-75
2021/03/16 01:48:33;;;;;;;5.30;3.00;;;5.00;99.90;;;;;;4941957;28;20038;-76
2021/03/16 01:51:02;;;;;;;3.70;2.58;;;5.00;99.90;;;;;;4966739;28;20572;-76
2021/03/16 01:53:28;;;;;;;3.20;2.35;;;5.00;99.90;;;;;;4955676;28;20551;-76
2021/03/16 01:55:56;;;;;;;5.97;3.33;;;5.00;99.90;;;;;;4963137;28;20059;-77
2021/03/16 01:58:22;;;;;;;4.80;2.75;;;5.00;99.90;;;;;;4964532;28;20505;-75
2021/03/16 02:00:49;;;;;;;5.07;3.60;;;5.00;99.90;;;;;;4961663;28;20524;-76
2021/03/16 02:03:15;;;;;;;4.43;3.13;;;4.90;99.90;;;;;;4967891;28;20019;-75
2021/03/16 02:05:42;;;;;;;4.97;3.25;;;4.90;99.90;;;;;;4978738;28;20079;-76
2021/03/16 02:08:32;;;;;;;4.38;2.78;;;4.80;99.90;;;;;;4957444;28;20030;-76
2021/03/16 02:11:05;;;;;;;3.88;3.08;;;4.70;99.90;;;;;;4955009;28;20058;-75
2021/03/16 02:13:43;;;;;;;3.97;3.22;;;4.70;99.90;;;;;;4961937;28;20035;-75
2021/03/16 02:16:19;;;;;;;5.13;2.90;;;4.60;99.90;;;;;;4968661;28;20027;-76
2021/03/16 02:18:51;;;;;;;5.10;2.78;;;4.60;99.90;;;;;;4966004;28;21937;-75
2021/03/16 02:21:22;;;;;;;4.80;3.17;;;4.50;99.90;;;;;;4955122;28;20098;-76
2021/03/16 02:24:17;;;;;;;3.13;2.80;;;4.50;99.90;;;;;;4968580;28;20450;-75
2021/03/16 02:26:49;;;;;;;4.93;2.88;;;4.40;99.90;;;;;;4963047;28;20089;-76
2021/03/16 02:29:24;;;;;;;6.63;3.10;;;4.30;99.90;;;;;;4940920;28;20079;-75
2021/03/16 02:32:05;;;;;;;4.97;2.88;;;4.30;99.90;;;;;;4990564;23;20025;-77
2021/03/16 02:34:35;;;;;;;5.47;2.58;;;4.30;99.90;;;;;;4997467;28;20110;-75
2021/03/16 02:37:04;;;;;;;3.03;2.25;;;4.30;99.90;;;;;;4995078;28;20027;-76
2021/03/16 02:39:32;;;;;;;3.17;2.55;;;4.30;99.90;;;;;;4992182;28;20027;-75
2021/03/16 02:42:01;;;;;;;5.03;2.60;;;4.30;99.90;;;;;;4984454;28;20049;-74
2021/03/16 02:44:27;;;;;;;5.00;3.00;;;4.30;99.90;;;;;;4973196;28;20219;-76
2021/03/16 02:46:54;;;;;;;2.70;2.20;;;4.30;99.90;;;;;;4973409;28;20026;-76
2021/03/16 02:49:21;;;;;;;2.90;2.17;;;4.30;99.90;;;;;;4976816;28;20051;-75
2021/03/16 02:51:48;;;;;;;1.95;1.60;;;4.40;99.90;;;;;;4975182;28;20027;-75
2021/03/16 02:54:16;;;;;;;2.53;1.45;;;4.50;99.90;;;;;;4975918;28;20041;-74
2021/03/16 02:56:43;;;;;;;1.85;1.67;;;4.50;99.90;;;;;;4977373;28;20272;-77
2021/03/16 02:59:10;;;;;;;2.40;1.58;;;4.40;99.90;;;;;;4971097;28;20497;-75
2021/03/16 03:01:38;;;;;;;2.42;2.00;;;4.40;99.90;;;;;;4975079;28;20015;-76
2021/03/16 03:04:08;;;;;;;2.50;1.65;;;4.40;99.90;;;;;;4974122;28;20050;-76
2021/03/16 03:06:38;;;;;;;2.80;1.50;;;4.40;99.90;;;;;;4975377;28;20393;-74
2021/03/16 03:09:05;;;;;;;2.55;1.83;;;4.40;99.90;;;;;;4975860;28;20365;-75
2021/03/16 03:11:32;;;;;;;3.10;2.28;;;4.50;99.90;;;;;;4974605;28;20422;-75
2021/03/16 03:14:03;;;;;;;2.00;1.73;;;4.60;99.90;;;;;;4972071;28;20078;-76
2021/03/16 03:16:29;;;;;;;2.33;2.05;;;4.70;99.90;;;;;;4977046;28;20029;-76
2021/03/16 03:18:55;;;;;;;1.63;1.50;;;4.70;99.90;;;;;;4973177;28;20045;-77
2021/03/16 03:21:30;;;;;;;2.15;1.65;;;4.70;99.90;;;;;;4970049;28;20038;-75
2021/03/16 03:24:03;;;;;;;3.05;2.00;;;4.70;99.90;;;;;;4966836;28;20019;-76
2021/03/16 03:27:02;;;;;;;2.15;1.90;;;4.80;99.90;;;;;;4976672;28;20022;-76
2021/03/16 03:29:31;;;;;;;2.28;1.60;;;4.80;99.90;;;;;;4969955;28;20090;-76
2021/03/16 03:31:58;;;;;;;2.72;1.80;;;4.80;99.90;;;;;;4974380;28;20031;-75
2021/03/16 03:34:25;;;;;;;3.13;2.10;;;4.70;99.90;;;;;;4973062;28;20033;-75
2021/03/16 03:36:57;;;;;;;1.45;1.35;;;4.70;99.90;;;;;;4968401;28;20027;-75
2021/03/16 03:39:25;;;;;;;2.63;1.88;;;4.60;99.90;;;;;;4962711;28;20060;-76
2021/03/16 03:41:53;;;;;;;1.33;1.23;;;4.60;99.90;;;;;;4974872;28;20035;-76
2021/03/16 03:44:21;;;;;;;2.85;2.00;;;4.70;99.90;;;;;;4967542;28;20026;-75
2021/03/16 03:46:48;;;;;;;3.58;1.83;;;4.70;99.90;;;;;;4973479;28;20034;-75
2021/03/16 03:49:16;;;;;;;5.88;1.40;;;4.70;99.90;;;;;;4974240;28;20033;-76
2021/03/16 03:51:47;;;;;;;1.67;1.00;;;4.60;99.90;;;;;;4976357;28;20113;-75
2021/03/16 03:54:16;;;;;;;2.67;1.30;;;4.70;99.90;;;;;;4970022;28;20034;-75
2021/03/16 03:56:43;;;;;;;1.95;1.85;;;4.70;99.90;;;;;;4968516;28;20031;-74
2021/03/16 03:59:10;;;;;;;2.22;1.55;;;4.80;99.90;;;;;;4974114;28;20082;-76
2021/03/16 04:01:36;;;;;;;1.50;1.13;;;4.90;99.90;;;;;;4975894;28;20069;-75
2021/03/16 04:04:03;;;;;;;1.13;1.02;;;5.00;99.90;;;;;;4974348;28;20062;-74
2021/03/16 04:06:30;;;;;;;3.15;1.98;;;5.00;99.90;;;;;;4974030;28;20022;-76
2021/03/16 04:08:56;;;;;;;2.17;1.45;;;4.90;99.90;;;;;;4969388;28;20058;-75
2021/03/16 04:11:23;;;;;;;4.60;1.50;;;4.80;99.90;;;;;;4976177;28;20035;-76
2021/03/16 04:13:50;;;;;;;1.50;1.40;;;4.70;99.90;;;;;;4973282;28;20046;-76
2021/03/16 04:16:18;;;;;;;2.42;1.58;;;4.60;99.90;;;;;;4974071;28;20035;-75
2021/03/16 04:18:45;;;;;;;1.75;1.38;;;4.70;99.90;;;;;;4973125;28;20727;-75
2021/03/16 04:21:16;;;;;;;1.63;1.38;;;4.90;99.90;;;;;;4967222;28;20027;-76
2021/03/16 04:23:43;;;;;;;2.25;1.80;;;4.90;99.90;;;;;;4972412;28;20053;-74
2021/03/16 04:26:10;;;;;;;2.22;1.70;;;4.90;99.90;;;;;;4975387;28;20027;-75
2021/03/16 04:28:38;;;;;;;1.80;1.23;;;4.90;99.90;;;;;;4974230;28;20034;-75
2021/03/16 04:31:04;;;;;;;3.35;0.82;;;4.90;99.90;;;;;;4973666;28;20031;-76
2021/03/16 04:33:31;;;;;;;2.80;1.35;;;4.80;99.90;;;;;;4975391;28;20392;-76
2021/03/16 04:36:00;;;;;;;3.33;1.33;;;4.70;99.90;;;;;;4972708;28;20041;-76
2021/03/16 04:38:26;;;;;;;1.50;1.27;;;4.50;99.90;;;;;;4969561;28;20041;-78
2021/03/16 04:40:52;;;;;;;1.80;1.25;;;4.60;99.90;;;;;;4975456;28;20117;-76
2021/03/16 04:44:39;;;;;;;;;;;;;;;;;;;;;
2021/03/16 04:49:02;;;;;;;3.78;2.08;;;4.50;99.90;;;;;;4889107;29;20035;-75
2021/03/16 04:50:57;;;;;;;6.85;2.13;;;4.50;99.90;;;;;;4873764;29;20133;-76
2021/03/16 04:53:23;;;;;;;2.55;1.55;;;4.50;99.90;;;;;;4896672;29;20040;-76
2021/03/16 04:55:49;;;;;;;1.23;1.00;;;4.60;99.90;;;;;;4963718;28;20047;-76
2021/03/16 04:58:15;;;;;;;7.15;1.60;;;4.60;99.90;;;;;;4971321;28;20026;-75
2021/03/16 05:00:41;;;;;;;1.17;1.08;;;4.70;99.90;;;;;;4975239;28;20030;-76
2021/03/16 05:03:06;;;;;;;2.47;1.30;;;4.80;99.90;;;;;;4960987;28;20026;-76
2021/03/16 05:05:32;;;;;;;1.50;1.23;;;4.70;99.90;;;;;;4975469;28;20025;-75
2021/03/16 05:07:58;;;;;;;3.80;1.40;;;4.70;99.90;;;;;;4967537;28;20034;-75
2021/03/16 05:10:31;;;;;;;3.10;1.70;;;4.60;99.90;;;;;;4974637;28;20030;-75
2021/03/16 05:12:57;;;;;;;4.38;1.63;;;4.60;99.90;;;;;;4967547;28;20057;-75
2021/03/16 05:15:40;;;;;;;2.28;1.65;;;4.60;99.90;;;;;;4973821;28;20026;-75
2021/03/16 05:19:11;;;;;;;3.38;1.35;;;4.60;99.90;;;;;;4964052;28;20023;-76
2021/03/16 05:25:20;;;;;;;3.40;2.58;;;4.50;99.90;;;;;;4893161;29;20185;-75
2021/03/16 05:27:47;;;;;;;1.63;1.52;;;4.60;99.90;;;;;;4930845;28;20047;-76
2021/03/16 05:30:13;;;;;;;3.33;2.35;;;4.60;99.90;;;;;;4974697;28;20030;-75
2021/03/16 05:32:39;;;;;;;5.00;1.80;;;4.50;99.90;;;;;;4974000;28;20070;-75
2021/03/16 05:35:06;;;;;;;2.10;1.70;;;4.40;99.90;;;;;;4975731;28;20058;-76
2021/03/16 05:37:32;;;;;;;3.17;2.20;;;4.40;99.90;;;;;;4975773;28;20045;-75
2021/03/16 05:39:57;;;;;;;2.55;1.75;;;4.40;99.90;;;;;;4976974;28;20102;-78
2021/03/16 05:42:24;;;;;;;3.55;2.15;;;4.50;99.90;;;;;;4976502;28;20023;-78
2021/03/16 05:44:51;;;;;;;4.25;2.42;;;4.50;99.90;;;;;;4978446;28;20385;-76
2021/03/16 05:47:19;;;;;;;3.15;2.88;;;4.60;99.90;;;;;;4978130;28;20034;-75
2021/03/16 05:49:46;;;;;;;2.22;2.05;;;4.70;99.90;;;;;;4971818;28;20116;-76
2021/03/16 05:52:13;;;;;;;2.92;2.30;;;4.80;99.90;;;;;;4971555;28;20604;-76
2021/03/16 05:54:39;;;;;;;7.05;2.58;;;4.80;99.90;;;;;;4971667;28;20039;-76
2021/03/16 05:57:11;;;;;;;7.45;2.97;;;4.90;99.90;;;;;;4974674;28;20026;-76
2021/03/16 05:59:37;;;;;;;6.78;3.22;;;4.90;99.90;;;;;;4970154;28;20476;-76
2021/03/16 06:02:03;;;;;;;10.10;3.50;;;4.90;99.90;;;;;;4969591;28;20038;-76
2021/03/16 06:04:32;;;;;;;4.57;2.17;;;4.80;99.90;;;;;;4975090;28;20037;-76
2021/03/16 06:07:01;;;;;;;4.72;2.90;;;4.90;99.90;;;;;;4967905;28;20572;-76
2021/03/16 06:09:26;;;;;;;2.55;1.90;;;5.00;99.90;;;;;;4976161;28;20030;-76
2021/03/16 06:11:55;;;;;;;3.55;2.35;;;5.10;99.90;;;;;;4970262;28;20026;-78
2021/03/16 06:14:31;;;;;;;7.35;3.33;;;5.20;99.90;;;;;;4977358;28;20393;-76
2021/03/16 06:16:58;;;;;;;4.45;2.70;;;5.40;99.90;;;;;;4970542;28;20539;-75
2021/03/16 06:19:44;;;;;;;8.18;3.38;;;5.40;99.90;;;;;;4975824;28;20478;-76
2021/03/16 06:22:19;;;;;;;6.18;3.08;;;5.40;99.90;;;;;;4990935;28;20027;-76
2021/03/16 06:24:49;;;;;;;3.08;2.78;;;5.40;99.90;;;;;;4969214;28;20028;-76
2021/03/16 06:27:26;;;;;;;10.18;3.70;;;5.50;99.90;;;;;;4975239;28;20508;-76
2021/03/16 06:29:52;;;;;;;5.35;3.42;;;5.60;99.90;;;;;;4975888;28;20045;-76
2021/03/16 06:32:18;;;;;;;6.03;4.32;;;5.60;99.90;;;;;;4973804;28;20170;-74
2021/03/16 06:34:44;;;;;;;11.10;5.28;;;5.90;99.90;;;;;;4973612;28;20035;-76
2021/03/16 06:37:11;;;;;;;9.55;4.75;;;6.00;99.90;;;;;;4974598;28;20493;-75
2021/03/16 06:39:46;;;;;;;8.68;4.20;;;6.00;99.90;;;;;;4973545;28;20027;-76
2021/03/16 06:42:26;;;;;;;11.68;4.38;;;6.00;99.90;;;;;;4970807;28;20065;-76
2021/03/16 06:45:00;;;;;;;6.18;4.38;;;6.20;99.90;;;;;;4972478;28;20063;-76
2021/03/16 06:47:26;;;;;;;3.45;2.92;;;6.20;99.90;;;;;;4968715;28;20102;-76
2021/03/16 06:49:52;;;;;;;14.15;2.60;;;6.30;99.90;;;;;;4983291;28;20145;-75
2021/03/16 06:52:18;;;;;;;4.57;2.70;;;6.40;99.90;;;;;;4975059;28;20099;-75
2021/03/16 06:54:44;;;;;;;7.63;2.70;;;6.50;99.90;;;;;;4968403;28;20042;-75
2021/03/16 06:57:13;;;;;;;4.80;2.67;;;6.70;99.90;;;;;;4967785;28;20128;-78
2021/03/16 06:59:39;;;;;;;13.38;3.10;;;6.90;99.90;;;;;;4970420;28;20106;-75
2021/03/16 07:02:13;;;;;;;8.40;2.53;;;7.00;99.90;;;;;;4974205;28;20099;-74
2021/03/16 07:04:43;;;;;;;4.03;2.30;;;7.10;99.90;;;;;;4974741;28;20053;-76
2021/03/16 07:07:11;;;;;;;3.17;2.42;;;7.20;99.90;;;;;;4977075;28;20029;-75
2021/03/16 07:09:37;;;;;;;5.07;2.17;;;7.40;99.90;;;;;;4974667;28;20042;-75
2021/03/16 07:12:04;;;;;;;7.75;2.00;;;7.60;99.90;;;;;;4975767;28;20018;-76
2021/03/16 07:14:31;;;;;;;4.07;2.97;;;7.80;99.90;;;;;;4977636;28;20026;-76
2021/03/16 07:17:00;;;;;;;6.40;2.75;;;7.90;99.90;;;;;;4968292;28;20027;-75
2021/03/16 07:19:29;;;;;;;6.05;3.33;;;8.10;99.90;;;;;;4975481;28;20030;-76
2021/03/16 07:21:56;;;;;;;5.68;2.80;;;8.20;99.90;;;;;;4968034;28;20026;-76
2021/03/16 07:24:24;;;;;;;3.17;2.88;;;8.40;99.90;;;;;;4971430;28;20027;-76
2021/03/16 07:26:50;;;;;;;11.52;3.40;;;8.60;99.90;;;;;;4977927;28;20026;-75
2021/03/16 07:29:17;;;;;;;7.45;2.53;;;8.70;99.90;;;;;;4977002;28;20027;-76
2021/03/16 07:31:43;;;;;;;2.80;2.22;;;8.60;99.90;;;;;;4976319;28;20054;-76
2021/03/16 07:34:11;;;;;;;3.35;2.13;;;8.70;99.90;;;;;;4977387;28;20077;-76
2021/03/16 07:36:38;;;;;;;8.25;2.97;;;8.70;99.90;;;;;;4976915;28;20078;-76
2021/03/16 07:39:09;;;;;;;6.32;1.92;;;8.70;99.90;;;;;;4976821;28;20019;-75
2021/03/16 07:41:40;;;;;;;8.13;2.85;;;8.80;99.90;;;;;;4975160;28;20114;-76
2021/03/16 07:44:10;;;;;;;9.02;2.47;;;8.80;99.90;;;;;;4976635;28;20394;-76
2021/03/16 07:46:47;;;;;;;5.57;2.20;;;8.80;99.90;;;;;;4975129;28;20050;-75
2021/03/16 07:49:15;;;;;;;7.63;2.40;;;8.90;99.90;;;;;;4972464;28;20030;-74
2021/03/16 07:51:43;;;;;;;6.82;3.20;;;9.10;99.90;;;;;;4972853;28;20026;-76
2021/03/16 07:54:10;;;;;;;2.40;2.10;;;9.40;99.90;;;;;;4968255;28;20102;-76
2021/03/16 07:56:37;;;;;;;8.25;2.55;;;9.50;99.90;;;;;;4973997;28;20066;-75
2021/03/16 07:59:04;;;;;;;8.48;2.60;;;9.60;99.90;;;;;;4964620;28;20073;-76
2021/03/16 08:01:47;;;;;;;3.03;2.30;;;9.70;99.90;;;;;;4972363;28;20027;-76
2021/03/16 08:04:13;;;;;;;1.80;1.67;;;9.60;99.90;;;;;;4981134;28;20014;-76
2021/03/16 08:06:43;;;;;;;2.22;1.70;;;9.60;99.90;;;;;;4975415;28;20061;-75
2021/03/16 08:09:29;;;;;;;4.97;1.95;;;9.50;99.90;;;;;;4973454;28;20022;-76
2021/03/16 08:11:56;;;;;;;3.47;2.10;;;9.60;99.90;;;;;;4973518;28;20445;-76
2021/03/16 08:14:30;;;;;;;2.70;2.08;;;9.70;99.90;;;;;;4970985;28;20041;-76
2021/03/16 08:16:56;;;;;;;4.78;2.47;;;9.80;99.90;;;;;;4972678;28;20046;-76
2021/03/16 08:19:42;;;;;;;2.70;2.05;;;9.90;99.90;;;;;;4967836;28;20042;-76
2021/03/16 08:22:10;;;;;;;11.65;2.28;;;10.00;99.90;;;;;;4964446;28;20565;-76
2021/03/16 08:24:41;;;;;;;7.15;2.90;;;10.00;99.90;;;;;;4966095;28;20070;-77
2021/03/16 08:27:14;;;;;;;3.25;2.38;;;10.00;99.90;;;;;;4966432;28;20026;-75
2021/03/16 08:29:49;;;;;;;4.80;2.88;;;9.90;99.90;;;;;;4963552;28;20027;-75
2021/03/16 08:32:17;;;;;;;9.23;2.65;;;9.90;99.90;;;;;;4965008;28;20244;-76
2021/03/16 08:34:45;;;;;;;3.42;2.78;;;9.80;99.90;;;;;;4966701;28;20030;-76
2021/03/16 08:37:21;;;;;;;5.63;1.95;;;9.60;99.90;;;;;;4962205;28;20466;-78
2021/03/16 08:39:51;;;;;;;4.85;2.83;;;9.50;99.90;;;;;;4968856;28;20106;-76
2021/03/16 08:42:19;;;;;;;5.15;2.10;;;9.20;99.90;;;;;;4962710;28;20287;-76
2021/03/16 08:44:46;;;;;;;3.95;2.63;;;9.00;99.90;;;;;;4971327;28;20122;-76
2021/03/16 08:47:17;;;;;;;5.82;1.90;;;9.00;99.90;;;;;;4972819;28;20610;-76
2021/03/16 08:49:45;;;;;;;2.88;2.65;;;9.00;99.90;;;;;;4972687;28;20034;-76
2021/03/16 08:52:19;;;;;;;4.55;2.35;;;9.10;99.90;;;;;;4972404;28;20077;-76
2021/03/16 08:54:45;;;;;;;3.22;2.92;;;9.20;99.90;;;;;;4971902;28;20089;-76
2021/03/16 08:57:17;;;;;;;2.50;2.03;;;9.30;99.90;;;;;;4972731;28;20033;-76
2021/03/16 08:59:50;;;;;;;2.60;1.80;;;9.30;99.90;;;;;;4963582;28;20023;-76
2021/03/16 09:02:39;;;;;;;7.70;2.33;;;9.50;99.90;;;;;;4974853;28;20061;-75
2021/03/16 09:05:16;;;;;;;2.47;2.28;;;9.50;99.90;;;;;;4977403;28;20026;-76
2021/03/16 09:07:45;;;;;;;3.15;2.22;;;9.60;99.90;;;;;;4978466;28;20199;-75
2021/03/16 09:10:17;;;;;;;4.57;2.38;;;9.70;99.90;;;;;;4972562;28;20030;-77
2021/03/16 09:12:44;;;;;;;8.27;2.85;;;9.70;99.90;;;;;;4974590;28;20085;-76
2021/03/16 09:15:22;;;;;;;4.68;2.65;;;9.80;99.90;;;;;;4972650;28;20034;-76
2021/03/16 09:17:51;;;;;;;6.60;2.38;;;9.90;99.90;;;;;;4972196;28;20129;-76
2021/03/16 09:20:31;;;;;;;5.47;2.90;;;10.00;99.90;;;;;;4971995;28;20481;-74
2021/03/16 09:23:08;;;;;;;5.50;2.58;;;10.30;99.90;;;;;;4972297;28;20038;-74
2021/03/16 09:25:37;;;;;;;5.10;2.38;;;10.80;99.90;;;;;;4967249;28;20027;-74
2021/03/16 09:28:09;;;;;;;5.00;3.40;;;11.10;99.90;;;;;;4972724;28;20046;-74
2021/03/16 09:30:45;;;;;;;7.70;4.00;;;11.00;99.90;;;;;;4977756;28;20026;-74
2021/03/16 09:33:16;;;;;;;5.60;5.10;;;10.70;99.90;;;;;;4970520;28;20085;-74
2021/03/16 09:35:42;;;;;;;6.40;4.73;;;10.40;99.90;;;;;;4967435;28;20041;-74
2021/03/16 09:38:09;;;;;;;4.13;3.50;;;10.30;99.90;;;;;;4971349;28;20070;-74
2021/03/16 09:40:38;;;;;;;1.80;1.67;;;10.20;99.90;;;;;;4973876;28;20042;-74
2021/03/16 09:43:16;;;;;;;7.75;2.60;;;10.20;99.90;;;;;;4969980;28;20031;-74
2021/03/16 09:45:51;;;;;;;3.15;2.45;;;10.20;99.90;;;;;;4973052;28;20405;-74
2021/03/16 09:48:18;;;;;;;3.75;2.22;;;10.20;99.90;;;;;;4969053;28;20041;-74
2021/03/16 09:50:45;;;;;;;2.40;1.83;;;10.10;99.90;;;;;;4970653;28;20026;-74
2021/03/16 09:53:16;;;;;;;8.38;2.42;;;10.20;99.90;;;;;;4972041;28;20390;-74
2021/03/16 09:55:43;;;;;;;2.85;1.67;;;10.20;99.90;;;;;;4972542;28;20038;-75
2021/03/16 09:58:20;;;;;;;5.20;2.28;;;10.30;99.90;;;;;;4970803;28;20531;-74
2021/03/16 10:00:50;;;;;;;5.57;2.70;;;10.20;99.90;;;;;;4970714;28;20064;-74
2021/03/16 10:03:18;;;;;;;4.22;2.80;;;10.30;99.90;;;;;;4973008;28;20505;-74
2021/03/16 10:05:44;;;;;;;4.72;2.25;;;10.40;99.90;;;;;;4971790;28;20031;-74
2021/03/16 10:08:21;;;;;;;5.18;2.25;;;10.40;99.90;;;;;;4971706;28;20030;-74
2021/03/16 10:10:47;;;;;;;5.85;2.40;;;10.40;99.90;;;;;;4965369;28;20027;-74
2021/03/16 10:13:13;;;;;;;6.90;2.20;;;10.40;99.90;;;;;;4970575;28;20026;-74
2021/03/16 10:15:44;;;;;;;1.73;1.60;;;10.50;99.90;;;;;;4972570;28;20469;-74
2021/03/16 10:18:18;;;;;;;6.70;1.98;;;10.60;99.90;;;;;;4966005;28;20074;-74
2021/03/16 10:20:45;;;;;;;3.70;1.98;;;10.50;99.90;;;;;;4970634;28;20026;-75
2021/03/16 10:23:17;;;;;;;9.20;2.75;;;10.60;99.90;;;;;;4973023;28;20039;-75
2021/03/16 10:25:43;;;;;;;5.32;2.65;;;10.90;99.90;;;;;;4975009;28;20022;-75
2021/03/16 10:28:10;;;;;;;3.00;2.10;;;11.10;99.90;;;;;;4976830;28;20022;-75
2021/03/16 10:30:39;;;;;;;10.50;2.22;;;11.20;99.90;;;;;;4975497;28;20026;-74
2021/03/16 10:33:07;;;;;;;6.07;1.80;;;11.30;99.90;;;;;;4975758;28;20041;-74
2021/03/16 10:35:39;;;;;;;1.90;1.30;;;11.40;99.90;;;;;;4973036;28;20042;-75
2021/03/16 10:38:06;;;;;;;5.00;2.13;;;11.30;99.90;;;;;;4974653;28;20389;-75
2021/03/16 10:40:33;;;;;;;3.63;3.05;;;11.30;99.90;;;;;;4974893;28;20035;-75
2021/03/16 10:42:59;;;;;;;2.35;1.48;;;11.30;99.90;;;;;;4975869;28;20022;-74
2021/03/16 10:45:26;;;;;;;1.88;0.93;;;11.20;99.90;;;;;;4975338;28;20022;-75
2021/03/16 10:47:52;;;;;;;2.75;2.28;;;11.20;99.90;;;;;;4975932;28;20062;-76
2021/03/16 10:50:18;;;;;;;1.02;0.90;;;11.30;99.90;;;;;;4968934;28;20035;-74
2021/03/16 10:52:44;;;;;;;3.45;1.85;;;11.40;99.90;;;;;;4972523;28;20031;-75
2021/03/16 10:55:10;;;;;;;3.22;2.90;;;11.40;99.90;;;;;;4975486;28;20039;-75
2021/03/16 10:57:36;;;;;;;9.10;2.35;;;11.50;99.90;;;;;;4973554;28;22020;-75
2021/03/16 11:00:05;;;;;;;2.85;1.50;;;11.70;99.90;;;;;;4975759;28;20046;-74
2021/03/16 11:02:31;;;;;;;2.03;1.67;;;11.70;99.90;;;;;;4975826;28;20642;-74
2021/03/16 11:04:56;;;;;;;2.35;1.90;;;11.70;99.90;;;;;;4968289;28;20119;-74
2021/03/16 11:07:22;;;;;;;4.85;1.55;;;11.80;99.90;;;;;;4973363;28;20295;-74
2021/03/16 11:09:48;;;;;;;2.67;2.03;;;11.90;99.90;;;;;;4974192;28;20098;-74
2021/03/16 11:12:16;;;;;;;7.95;2.70;;;12.00;99.90;;;;;;4972750;28;20035;-74
2021/03/16 11:14:43;;;;;;;2.58;2.03;;;12.10;99.90;;;;;;4973650;28;20031;-75
2021/03/16 11:17:09;;;;;;;2.33;1.52;;;12.20;99.90;;;;;;4974054;28;20465;-75
2021/03/16 11:19:34;;;;;;;1.95;1.70;;;12.30;99.90;;;;;;4971880;28;20024;-75
2021/03/16 11:22:00;;;;;;;43.25;4.25;;;12.40;99.90;;;;;;4976636;28;20030;-78
2021/03/16 11:24:26;;;;;;;78.47;4.97;;;12.10;99.90;;;;;;4980176;28;20035;-75
2021/03/16 11:26:52;;;;;;;4.97;2.55;;;12.20;99.90;;;;;;4976002;28;20031;-75
2021/03/16 11:29:18;;;;;;;5.85;2.22;;;12.20;99.90;;;;;;4973943;28;20054;-75
2021/03/16 11:31:44;;;;;;;3.63;2.53;;;12.30;99.90;;;;;;4975346;28;20607;-76
2021/03/16 11:34:10;;;;;;;4.05;2.70;;;12.40;99.90;;;;;;4973986;28;20086;-75
2021/03/16 11:36:35;;;;;;;1.98;1.73;;;12.60;99.90;;;;;;4973132;28;20031;-75
2021/03/16 11:39:01;;;;;;;8.25;2.35;;;12.60;99.90;;;;;;4974303;28;20035;-75
2021/03/16 11:41:27;;;;;;;10.73;2.65;;;12.60;99.90;;;;;;4974205;28;20027;-75
2021/03/16 11:43:53;;;;;;;6.95;2.95;;;12.40;99.90;;;;;;4973335;28;20508;-75
2021/03/16 11:46:19;;;;;;;4.25;2.70;;;12.50;99.90;;;;;;4973785;28;20030;-75
2021/03/16 11:48:45;;;;;;;3.58;2.67;;;12.70;99.90;;;;;;4974759;28;20023;-76
2021/03/16 11:51:11;;;;;;;4.90;2.60;;;13.00;99.90;;;;;;4970889;28;20026;-77
2021/03/16 11:53:37;;;;;;;3.13;2.67;;;13.10;99.90;;;;;;4974593;28;20015;-78
2021/03/16 11:56:03;;;;;;;3.25;2.95;;;12.80;99.90;;;;;;4971311;28;20030;-75
2021/03/16 11:58:29;;;;;;;3.53;3.15;;;12.80;99.90;;;;;;4974278;28;20023;-76
2021/03/16 12:00:55;;;;;;;2.75;2.35;;;12.90;99.90;;;;;;4989994;28;20023;-76
2021/03/16 12:03:21;;;;;;;6.65;2.95;;;13.10;99.90;;;;;;4974646;28;20054;-76
2021/03/16 12:05:47;;;;;;;7.35;3.00;;;13.20;99.90;;;;;;4973296;28;20501;-76
2021/03/16 12:08:13;;;;;;;4.55;2.47;;;13.30;99.90;;;;;;4975359;28;20035;-76
2021/03/16 12:10:40;;;;;;;1.70;1.58;;;13.40;99.90;;;;;;4986247;28;20022;-77
2021/03/16 12:13:06;;;;;;;3.92;2.10;;;13.50;99.90;;;;;;4986683;28;20639;-78
2021/03/16 12:15:32;;;;;;;4.45;2.75;;;13.60;99.90;;;;;;4991870;28;20027;-76
2021/03/16 12:17:58;;;;;;;3.50;2.45;;;13.60;99.90;;;;;;4996108;28;20042;-77
2021/03/16 12:20:24;;;;;;;4.13;2.22;;;13.90;99.90;;;;;;4989548;28;20063;-77
2021/03/16 12:22:50;;;;;;;5.40;2.55;;;13.90;99.90;;;;;;4987116;28;20022;-78
2021/03/16 12:25:16;;;;;;;6.97;2.63;;;14.10;99.90;;;;;;4985418;28;20034;-77
2021/03/16 12:27:42;;;;;;;2.15;1.85;;;14.20;99.90;;;;;;4978696;28;20039;-76
2021/03/16 12:30:08;;;;;;;3.03;2.15;;;14.10;99.90;;;;;;4971513;28;20030;-76
2021/03/16 12:32:38;;;;;;;2.83;2.20;;;14.00;99.80;;;;;;4974045;28;20031;-76
2021/03/16 12:35:10;;;;;;;3.50;2.60;;;13.60;99.60;;;;;;4975082;28;20030;-76
2021/03/16 12:37:36;;;;;;;5.47;2.13;;;13.40;99.70;;;;;;4974765;28;20041;-76
2021/03/16 12:40:04;;;;;;;4.97;3.42;;;13.30;98.40;;;;;;4974007;28;20092;-76
2021/03/16 12:42:34;;;;;;;4.93;2.80;;;13.10;98.50;;;;;;4974997;28;20579;-75
2021/03/16 12:45:00;;;;;;;4.85;3.80;;;13.00;99.90;;;;;;4972169;28;20552;-75
2021/03/16 12:47:26;;;;;;;2.83;2.05;;;13.00;99.90;;;;;;4978626;28;20044;-76
2021/03/16 12:49:53;;;;;;;10.57;7.03;;;12.90;99.90;;;;;;4977073;28;20089;-75
2021/03/16 12:52:18;;;;;;;4.15;2.67;;;13.00;99.90;;;;;;4972251;28;20033;-75
2021/03/16 12:54:45;;;;;;;4.93;2.92;;;13.00;99.90;;;;;;4973129;28;20027;-75
2021/03/16 12:57:12;;;;;;;4.43;2.65;;;12.90;99.90;;;;;;4972450;28;20027;-75
2021/03/16 12:59:38;;;;;;;8.77;3.10;;;13.00;99.90;;;;;;4974124;28;20082;-75
2021/03/16 13:02:04;;;;;;;6.38;5.18;;;13.10;99.90;;;;;;4974473;28;20065;-80
2021/03/16 13:04:30;;;;;;;5.25;4.47;;;13.20;99.90;;;;;;4973066;28;20516;-75
2021/03/16 13:06:56;;;;;;;6.45;3.47;;;13.20;99.90;;;;;;4973451;28;20054;-76
2021/03/16 13:09:22;;;;;;;9.43;7.00;;;13.40;99.90;;;;;;4974591;28;20117;-76
2021/03/16 13:11:49;;;;;;;6.43;3.50;;;13.80;99.90;;;;;;4969135;28;20431;-76
2021/03/16 13:14:15;;;;;;;3.38;2.17;;;14.00;99.90;;;;;;4971093;28;20030;-76
2021/03/16 13:16:41;;;;;;;2.83;2.53;;;14.00;99.90;;;;;;4974088;28;20409;-75